Waverly, Virginia
Current Conditions -  °F | °C
As of 12:54 AM on Thursday 23 Oct 2014 (Local Time) from KAKQ Reporting Station
Few Clouds Few Clouds  
Wind Chill: 53°   Ceiling: Unl
Heat Index: 53°   Visibility: 10mi
Dew Point: 43°   Wind: 6mph
Humidity: 69%   Direction: NA
Pressure: 29.93"   Gusts: NA
Location:  37.03°N, 77.1°W
Report Text: KAKQ 230454Z AUTO VRB05KT 10SM FEW037 12/06 A2993 RMK AO2 SLP137 T01170061 401440111 TSNO
Loading
Personal Weather Stations






























Interactive Weather Map
Tropical Storm Tracking
New forecast layout! Learn more

10-Day Weather Forecast

Advertisements
Track Severe Weather on mobile